Time;durP1;ratioP1;P1;durP2;ratioP2;P2;SDS_P1;SDS_P2;PMS_P1;PMS_P2;Temp;Humidity;BMP_temperature;BMP_pressure;BME280_temperature;BME280_humidity;BME280_pressure;Samples;Min_cycle;Max_cycle;Signal;HPM_P1;HPM_P2
2022/06/27 00:02:05;;;;;;;11.88;8.25;;;;;;;;;;5079427;28;20040;-63
2022/06/27 00:04:31;;;;;;;9.80;6.97;;;;;;;;;;5063949;28;20048;-63
2022/06/27 00:06:57;;;;;;;13.43;7.82;;;;;;;;;;5063985;28;20045;-63
2022/06/27 00:09:23;;;;;;;11.38;6.97;;;;;;;;;;5079818;28;20132;-63
2022/06/27 00:11:49;;;;;;;10.73;7.55;;;;;;;;;;5064198;28;20095;-64
2022/06/27 00:14:15;;;;;;;10.40;8.63;;;;;;;;;;5097407;28;20133;-64
2022/06/27 00:16:41;;;;;;;11.45;7.25;;;;;;;;;;5073372;28;20178;-64
2022/06/27 00:19:07;;;;;;;12.00;7.30;;;;;;;;;;5089464;28;20060;-63
2022/06/27 00:21:34;;;;;;;12.32;8.93;;;;;;;;;;5081820;28;20048;-64
2022/06/27 00:24:00;;;;;;;10.00;7.82;;;;;;;;;;5083464;28;20053;-64
2022/06/27 00:26:26;;;;;;;12.60;8.05;;;;;;;;;;5067795;28;20048;-64
2022/06/27 00:28:52;;;;;;;10.25;8.60;;;;;;;;;;5089631;28;20052;-64
2022/06/27 00:31:18;;;;;;;8.65;7.82;;;;;;;;;;5074206;28;20078;-64
2022/06/27 00:33:44;;;;;;;11.65;8.52;;;;;;;;;;5066861;28;20053;-64
2022/06/27 00:36:10;;;;;;;13.43;10.00;;;;;;;;;;5083193;28;20060;-65
2022/06/27 00:38:36;;;;;;;13.82;10.43;;;;;;;;;;5067756;28;20838;-65
2022/06/27 00:41:03;;;;;;;14.10;9.63;;;;;;;;;;5067937;28;20049;-65
2022/06/27 00:43:29;;;;;;;13.05;9.90;;;;;;;;;;5067203;28;20049;-65
2022/06/27 00:45:55;;;;;;;13.05;9.95;;;;;;;;;;5067592;28;20106;-65
2022/06/27 00:48:21;;;;;;;15.40;10.10;;;;;;;;;;5079612;28;20041;-65
2022/06/27 00:50:47;;;;;;;14.05;9.80;;;;;;;;;;5067356;28;20100;-65
2022/06/27 00:53:14;;;;;;;17.73;11.65;;;;;;;;;;5067168;28;20066;-65
2022/06/27 00:55:40;;;;;;;15.00;10.63;;;;;;;;;;5082605;28;20065;-65
2022/06/27 00:58:06;;;;;;;15.85;10.65;;;;;;;;;;5067263;28;20400;-65
2022/06/27 01:00:32;;;;;;;18.27;10.73;;;;;;;;;;5082621;28;20049;-65
2022/06/27 01:02:58;;;;;;;15.75;10.63;;;;;;;;;;5084475;28;20137;-65
2022/06/27 01:05:25;;;;;;;12.40;9.48;;;;;;;;;;5083406;28;20044;-65
2022/06/27 01:07:51;;;;;;;14.10;9.75;;;;;;;;;;5102632;28;20076;-65
2022/06/27 01:10:17;;;;;;;11.55;9.30;;;;;;;;;;5079909;28;20060;-65
2022/06/27 01:12:43;;;;;;;11.60;9.18;;;;;;;;;;5071338;28;20160;-65
2022/06/27 01:15:10;;;;;;;15.63;10.50;;;;;;;;;;5087149;28;20044;-65
2022/06/27 01:17:37;;;;;;;10.70;9.55;;;;;;;;;;5072040;28;20049;-65
2022/06/27 01:20:04;;;;;;;14.63;10.38;;;;;;;;;;5095996;28;20083;-65
2022/06/27 01:22:30;;;;;;;15.48;11.80;;;;;;;;;;5066691;28;20049;-65
2022/06/27 01:24:56;;;;;;;14.05;11.77;;;;;;;;;;5066731;28;20108;-65
2022/06/27 01:27:22;;;;;;;14.95;12.32;;;;;;;;;;5066713;28;20101;-65
2022/06/27 01:29:49;;;;;;;15.60;12.27;;;;;;;;;;5066547;28;20048;-65
2022/06/27 01:32:15;;;;;;;17.95;13.35;;;;;;;;;;5066136;28;20044;-65
2022/06/27 01:34:41;;;;;;;19.02;13.02;;;;;;;;;;5066817;28;20112;-65
2022/06/27 01:37:07;;;;;;;17.42;12.95;;;;;;;;;;5079795;28;20124;-65
2022/06/27 01:39:33;;;;;;;14.27;12.57;;;;;;;;;;5066722;28;20130;-65
2022/06/27 01:42:01;;;;;;;15.95;11.93;;;;;;;;;;5080403;28;20071;-65
2022/06/27 01:44:28;;;;;;;14.40;12.98;;;;;;;;;;5066442;28;20044;-65
2022/06/27 01:46:55;;;;;;;17.58;13.35;;;;;;;;;;5065768;28;20053;-65
2022/06/27 01:49:21;;;;;;;18.27;13.65;;;;;;;;;;5075728;28;20092;-64
2022/06/27 01:51:49;;;;;;;17.80;12.52;;;;;;;;;;5070470;28;20076;-65
2022/06/27 01:54:17;;;;;;;14.63;12.43;;;;;;;;;;5081683;28;20051;-65
2022/06/27 01:56:49;;;;;;;15.38;11.82;;;;;;;;;;5075233;28;20044;-65
2022/06/27 01:59:17;;;;;;;14.82;11.65;;;;;;;;;;5066335;28;20063;-65
2022/06/27 02:01:44;;;;;;;15.57;11.73;;;;;;;;;;5065812;28;20056;-65
2022/06/27 02:04:11;;;;;;;16.17;12.63;;;;;;;;;;5081110;28;20080;-65
2022/06/27 02:06:38;;;;;;;17.77;13.30;;;;;;;;;;5066103;28;20132;-65
2022/06/27 02:09:06;;;;;;;14.52;13.02;;;;;;;;;;5069453;28;20050;-65
2022/06/27 02:11:31;;;;;;;;;;;;;;;;;;5086405;28;20036;-65
2022/06/27 02:13:58;;;;;;;18.77;13.40;;;;;;;;;;5085698;28;20003;-65
2022/06/27 02:16:25;;;;;;;14.73;12.88;;;;;;;;;;5085736;28;20049;-65
2022/06/27 02:18:51;;;;;;;17.58;13.57;;;;;;;;;;5072120;28;20540;-65
2022/06/27 02:21:19;;;;;;;20.35;14.35;;;;;;;;;;5065774;28;20044;-65
2022/06/27 02:23:45;;;;;;;14.13;12.73;;;;;;;;;;5077085;28;20055;-65
2022/06/27 02:26:12;;;;;;;16.42;13.05;;;;;;;;;;5068110;28;20033;-65
2022/06/27 02:28:38;;;;;;;17.70;14.00;;;;;;;;;;5081013;28;20051;-65
2022/06/27 02:31:06;;;;;;;18.30;13.55;;;;;;;;;;5079591;28;20104;-64
2022/06/27 02:33:36;;;;;;;15.20;12.68;;;;;;;;;;5064619;28;20052;-64
2022/06/27 02:36:03;;;;;;;13.75;12.20;;;;;;;;;;5080356;28;20052;-64
2022/06/27 02:38:29;;;;;;;17.05;13.13;;;;;;;;;;5080604;28;20104;-64
2022/06/27 02:40:57;;;;;;;17.17;13.98;;;;;;;;;;5065470;28;20094;-64
2022/06/27 02:43:24;;;;;;;20.52;13.63;;;;;;;;;;5065036;28;20044;-64
2022/06/27 02:45:50;;;;;;;14.23;12.80;;;;;;;;;;5068030;28;20077;-64
2022/06/27 02:48:18;;;;;;;18.80;13.48;;;;;;;;;;5070290;28;20370;-65
2022/06/27 02:50:46;;;;;;;18.15;12.93;;;;;;;;;;5100997;28;20500;-64
2022/06/27 02:53:16;;;;;;;15.25;13.77;;;;;;;;;;5068912;28;20040;-64
2022/06/27 02:55:46;;;;;;;17.10;12.55;;;;;;;;;;5080405;28;20098;-64
2022/06/27 02:58:19;;;;;;;20.15;15.55;;;;;;;;;;5094684;28;20036;-65
2022/06/27 03:00:47;;;;;;;21.58;14.38;;;;;;;;;;5080438;28;20120;-64
2022/06/27 03:03:14;;;;;;;16.90;14.77;;;;;;;;;;5064114;28;20037;-64
2022/06/27 03:05:56;;;;;;;15.57;13.73;;;;;;;;;;5080221;28;20088;-64
2022/06/27 03:08:22;;;;;;;23.27;16.08;;;;;;;;;;5080283;28;20041;-64
2022/06/27 03:10:49;;;;;;;21.70;15.70;;;;;;;;;;5078862;28;20033;-64
2022/06/27 03:13:15;;;;;;;18.88;14.82;;;;;;;;;;5064566;28;20041;-64
2022/06/27 03:15:41;;;;;;;19.83;16.90;;;;;;;;;;5080137;28;20043;-64
2022/06/27 03:18:08;;;;;;;22.77;16.65;;;;;;;;;;5079482;28;20045;-64
2022/06/27 03:20:34;;;;;;;19.38;17.25;;;;;;;;;;5064793;28;20088;-64
2022/06/27 03:23:00;;;;;;;19.45;16.55;;;;;;;;;;5079843;28;20055;-64
2022/06/27 03:25:26;;;;;;;22.38;16.67;;;;;;;;;;5076165;28;20037;-64
2022/06/27 03:27:52;;;;;;;22.98;18.35;;;;;;;;;;5066874;28;20048;-64
2022/06/27 03:30:18;;;;;;;27.85;19.42;;;;;;;;;;5073931;28;20499;-64
2022/06/27 03:32:44;;;;;;;24.88;18.60;;;;;;;;;;5069960;28;20052;-64
2022/06/27 03:35:10;;;;;;;27.35;20.73;;;;;;;;;;5084299;28;20044;-64
2022/06/27 03:37:36;;;;;;;26.88;21.48;;;;;;;;;;5084381;28;20044;-64
2022/06/27 03:40:03;;;;;;;30.35;22.98;;;;;;;;;;5079119;28;20041;-64
2022/06/27 03:42:29;;;;;;;35.57;22.47;;;;;;;;;;5064337;28;20045;-64
2022/06/27 03:44:55;;;;;;;32.17;22.35;;;;;;;;;;5068204;28;20037;-64
2022/06/27 03:47:21;;;;;;;30.02;21.58;;;;;;;;;;5074347;28;20504;-65
2022/06/27 03:50:00;;;;;;;30.48;24.15;;;;;;;;;;5070128;28;20135;-64
2022/06/27 03:52:26;;;;;;;;;;;;;;;;;;5088791;28;20055;-64
2022/06/27 03:54:52;;;;;;;28.92;21.55;;;;;;;;;;5071193;28;19928;-64
2022/06/27 03:57:18;;;;;;;32.60;22.90;;;;;;;;;;5091160;28;20101;-64
2022/06/27 03:59:44;;;;;;;26.55;22.20;;;;;;;;;;5089997;28;20706;-64
2022/06/27 04:02:10;;;;;;;26.30;21.05;;;;;;;;;;5067409;28;20049;-64
2022/06/27 04:04:36;;;;;;;25.50;19.90;;;;;;;;;;5095556;28;20045;-64
2022/06/27 04:07:03;;;;;;;23.25;19.02;;;;;;;;;;5070074;28;20059;-64
2022/06/27 04:09:29;;;;;;;23.40;18.42;;;;;;;;;;5074288;28;20522;-64
2022/06/27 04:11:56;;;;;;;22.33;18.77;;;;;;;;;;5075968;28;20119;-64
2022/06/27 04:14:22;;;;;;;26.67;17.60;;;;;;;;;;5068146;28;20128;-64
2022/06/27 04:16:48;;;;;;;26.88;18.42;;;;;;;;;;5067402;28;20052;-64
2022/06/27 04:19:14;;;;;;;24.73;19.25;;;;;;;;;;5067961;28;20056;-64
2022/06/27 04:21:40;;;;;;;24.27;19.23;;;;;;;;;;5067911;28;20485;-64
2022/06/27 04:24:06;;;;;;;25.42;18.60;;;;;;;;;;5083421;28;20045;-65
2022/06/27 04:26:32;;;;;;;24.88;19.60;;;;;;;;;;5092450;28;20479;-64
2022/06/27 04:28:58;;;;;;;21.63;16.77;;;;;;;;;;5068059;28;20048;-64
2022/06/27 04:31:25;;;;;;;24.92;18.20;;;;;;;;;;5067494;28;20097;-64
2022/06/27 04:33:51;;;;;;;19.70;16.45;;;;;;;;;;5067228;28;20045;-64
2022/06/27 04:36:17;;;;;;;22.50;15.95;;;;;;;;;;5099991;28;20055;-64
2022/06/27 04:38:44;;;;;;;21.73;16.05;;;;;;;;;;5078867;28;20421;-65
2022/06/27 04:41:10;;;;;;;17.13;14.50;;;;;;;;;;5067560;28;20052;-64
2022/06/27 04:43:36;;;;;;;19.83;15.90;;;;;;;;;;5074451;28;20056;-64
2022/06/27 04:46:05;;;;;;;17.33;14.18;;;;;;;;;;5074662;28;20068;-64
2022/06/27 04:48:32;;;;;;;15.02;13.40;;;;;;;;;;5072186;28;20044;-64
2022/06/27 04:50:59;;;;;;;16.85;12.95;;;;;;;;;;5091688;28;20560;-64
2022/06/27 04:53:25;;;;;;;14.65;12.13;;;;;;;;;;5081144;28;20076;-64
2022/06/27 04:55:53;;;;;;;16.75;12.75;;;;;;;;;;5082707;28;20056;-65
2022/06/27 04:58:19;;;;;;;12.93;11.63;;;;;;;;;;5082128;28;20085;-64
2022/06/27 05:00:46;;;;;;;17.42;11.90;;;;;;;;;;5099586;28;20096;-64
2022/06/27 05:03:12;;;;;;;15.88;12.63;;;;;;;;;;5066406;28;20286;-64
2022/06/27 05:05:38;;;;;;;12.88;10.80;;;;;;;;;;5082814;28;20044;-64
2022/06/27 05:08:05;;;;;;;11.35;9.43;;;;;;;;;;5067047;28;20504;-63
2022/06/27 05:10:31;;;;;;;11.95;9.98;;;;;;;;;;5096875;28;20072;-63
2022/06/27 05:12:59;;;;;;;11.80;9.07;;;;;;;;;;5066877;28;20041;-63
2022/06/27 05:15:25;;;;;;;11.40;9.45;;;;;;;;;;5073871;28;20088;-63
2022/06/27 05:17:52;;;;;;;9.38;8.48;;;;;;;;;;5080108;28;20041;-64
2022/06/27 05:20:18;;;;;;;8.93;6.68;;;;;;;;;;5066856;28;20094;-64
2022/06/27 05:22:44;;;;;;;8.75;7.85;;;;;;;;;;5069713;28;20061;-63
2022/06/27 05:25:10;;;;;;;9.93;7.50;;;;;;;;;;5093471;28;20124;-63
2022/06/27 05:27:37;;;;;;;6.47;5.75;;;;;;;;;;5066653;28;20099;-63
2022/06/27 05:30:04;;;;;;;8.43;7.00;;;;;;;;;;5066766;28;20552;-65
2022/06/27 05:32:30;;;;;;;7.85;7.05;;;;;;;;;;5066239;28;20045;-65
2022/06/27 05:34:57;;;;;;;6.72;5.85;;;;;;;;;;5080388;28;20033;-64
2022/06/27 05:37:23;;;;;;;6.90;6.13;;;;;;;;;;5093638;28;20059;-65
2022/06/27 05:39:49;;;;;;;4.90;4.40;;;;;;;;;;5068626;28;20037;-65
2022/06/27 05:42:17;;;;;;;5.35;3.85;;;;;;;;;;5081933;28;20053;-65
2022/06/27 05:44:43;;;;;;;3.40;3.10;;;;;;;;;;5081806;28;20099;-64
2022/06/27 05:47:10;;;;;;;4.88;3.88;;;;;;;;;;5065916;28;20072;-64
2022/06/27 05:49:39;;;;;;;3.72;3.38;;;;;;;;;;5066445;28;20047;-64
2022/06/27 05:52:05;;;;;;;5.57;3.70;;;;;;;;;;5086245;28;20044;-64
2022/06/27 05:54:31;;;;;;;3.75;3.15;;;;;;;;;;5073634;28;20063;-64
2022/06/27 05:56:58;;;;;;;5.03;3.20;;;;;;;;;;5070861;28;20090;-65
2022/06/27 05:59:24;;;;;;;4.30;2.38;;;;;;;;;;5074002;28;20105;-65
2022/06/27 06:01:51;;;;;;;2.80;2.55;;;;;;;;;;5080648;28;20049;-65
2022/06/27 06:04:18;;;;;;;3.20;2.90;;;;;;;;;;5065874;28;20041;-65
2022/06/27 06:06:44;;;;;;;5.80;2.67;;;;;;;;;;5065853;28;20045;-65
2022/06/27 06:09:11;;;;;;;2.67;2.17;;;;;;;;;;5088743;28;20047;-65
2022/06/27 06:11:38;;;;;;;3.10;2.70;;;;;;;;;;5074124;28;20048;-65
2022/06/27 06:14:04;;;;;;;2.50;2.30;;;;;;;;;;5097573;28;20052;-65
2022/06/27 06:16:30;;;;;;;2.45;2.25;;;;;;;;;;5085043;28;20057;-65
2022/06/27 06:18:57;;;;;;;2.75;2.20;;;;;;;;;;5071983;28;20044;-64
2022/06/27 06:21:23;;;;;;;2.92;2.28;;;;;;;;;;5071592;28;20044;-64
2022/06/27 06:23:54;;;;;;;3.70;2.20;;;;;;;;;;5073662;28;20064;-64
2022/06/27 06:26:20;;;;;;;2.78;2.08;;;;;;;;;;5065447;28;20052;-64
2022/06/27 06:28:51;;;;;;;5.25;2.20;;;;;;;;;;5065579;28;20045;-64
2022/06/27 06:31:23;;;;;;;3.97;2.10;;;;;;;;;;5065576;28;20603;-64
2022/06/27 06:33:54;;;;;;;4.07;2.75;;;;;;;;;;5064711;28;20057;-64
2022/06/27 06:36:21;;;;;;;2.58;2.22;;;;;;;;;;5068352;28;20040;-65
2022/06/27 06:38:49;;;;;;;4.13;2.60;;;;;;;;;;5076084;28;20374;-66
2022/06/27 06:41:15;;;;;;;3.03;2.58;;;;;;;;;;5066731;28;20060;-64
2022/06/27 06:43:42;;;;;;;5.50;2.42;;;;;;;;;;5077791;28;20069;-64
2022/06/27 06:46:10;;;;;;;3.33;2.38;;;;;;;;;;5078939;28;20050;-64
2022/06/27 06:48:37;;;;;;;3.90;1.90;;;;;;;;;;5063125;28;20044;-65
2022/06/27 06:51:04;;;;;;;2.05;1.85;;;;;;;;;;5065419;28;20049;-65
2022/06/27 06:53:30;;;;;;;2.65;1.95;;;;;;;;;;5083176;28;20492;-65
2022/06/27 06:55:57;;;;;;;2.50;2.30;;;;;;;;;;5074351;28;20057;-64
2022/06/27 06:58:25;;;;;;;3.03;2.28;;;;;;;;;;5094732;28;20060;-64
2022/06/27 07:00:54;;;;;;;3.97;2.20;;;;;;;;;;5065068;28;20045;-64
2022/06/27 07:03:20;;;;;;;3.67;2.63;;;;;;;;;;5078185;28;20045;-64
2022/06/27 07:05:46;;;;;;;3.28;2.53;;;;;;;;;;5065124;28;20041;-65
2022/06/27 07:08:13;;;;;;;2.95;2.65;;;;;;;;;;5064716;28;20079;-64
2022/06/27 07:10:40;;;;;;;3.25;2.78;;;;;;;;;;5078568;28;20063;-65
2022/06/27 07:13:07;;;;;;;3.03;2.10;;;;;;;;;;5072884;28;20049;-64
2022/06/27 07:15:33;;;;;;;3.45;2.85;;;;;;;;;;5070871;28;20070;-64
2022/06/27 07:18:02;;;;;;;3.17;2.88;;;;;;;;;;5085616;28;20052;-64
2022/06/27 07:20:30;;;;;;;4.70;2.63;;;;;;;;;;5070900;28;20037;-64
2022/06/27 07:22:57;;;;;;;5.65;2.53;;;;;;;;;;5064309;28;20048;-64
2022/06/27 07:25:25;;;;;;;3.42;2.70;;;;;;;;;;5064679;28;20052;-65
2022/06/27 07:27:51;;;;;;;5.32;2.85;;;;;;;;;;5064576;28;20044;-65
2022/06/27 07:30:19;;;;;;;3.70;2.85;;;;;;;;;;5064661;28;20099;-64
2022/06/27 07:32:46;;;;;;;3.65;2.58;;;;;;;;;;5064018;28;20120;-64
2022/06/27 07:35:13;;;;;;;3.47;3.17;;;;;;;;;;5064418;28;20068;-64
2022/06/27 07:37:51;;;;;;;4.25;2.78;;;;;;;;;;5079798;28;20060;-65
2022/06/27 07:40:21;;;;;;;4.32;3.08;;;;;;;;;;5064548;28;20070;-65
2022/06/27 07:42:48;;;;;;;2.83;2.60;;;;;;;;;;5064240;28;20497;-64
2022/06/27 07:45:15;;;;;;;3.53;3.10;;;;;;;;;;5077175;28;20052;-64
2022/06/27 07:47:42;;;;;;;3.53;3.05;;;;;;;;;;5071493;28;20401;-64
2022/06/27 07:50:09;;;;;;;4.28;3.58;;;;;;;;;;5068891;28;20044;-64
2022/06/27 07:55:23;;;;;;;4.25;2.85;;;;;;;;;;5063936;28;20109;-65
2022/06/27 07:57:52;;;;;;;3.92;2.92;;;;;;;;;;5064194;28;20170;-65
2022/06/27 08:00:18;;;;;;;5.00;3.53;;;;;;;;;;5068461;28;20051;-65
2022/06/27 08:02:44;;;;;;;4.10;3.53;;;;;;;;;;5073376;28;20063;-65
2022/06/27 08:05:11;;;;;;;3.53;2.90;;;;;;;;;;5078022;28;20104;-66
2022/06/27 08:07:38;;;;;;;4.30;3.72;;;;;;;;;;5064403;28;20045;-65
2022/06/27 08:10:05;;;;;;;4.10;3.70;;;;;;;;;;5078826;28;20105;-66
2022/06/27 08:12:32;;;;;;;5.50;3.33;;;;;;;;;;5070079;28;20060;-65
2022/06/27 08:14:59;;;;;;;5.13;3.33;;;;;;;;;;5075110;28;20063;-66
2022/06/27 08:17:26;;;;;;;5.85;3.47;;;;;;;;;;5094286;28;20053;-65
2022/06/27 08:19:52;;;;;;;5.77;3.70;;;;;;;;;;5084154;28;20041;-66
2022/06/27 08:22:21;;;;;;;6.22;3.47;;;;;;;;;;5069286;28;20133;-65
2022/06/27 08:24:48;;;;;;;4.53;3.25;;;;;;;;;;5064068;28;20040;-65
2022/06/27 08:27:14;;;;;;;4.75;3.78;;;;;;;;;;5079453;28;20124;-65
2022/06/27 08:29:41;;;;;;;5.00;3.85;;;;;;;;;;5068235;28;20044;-65
2022/06/27 08:32:08;;;;;;;4.68;4.15;;;;;;;;;;5072024;28;20045;-65
2022/06/27 08:34:35;;;;;;;8.70;4.40;;;;;;;;;;5082639;28;20048;-66
2022/06/27 08:37:02;;;;;;;4.57;3.65;;;;;;;;;;5078938;28;20041;-65
2022/06/27 08:39:29;;;;;;;5.90;4.25;;;;;;;;;;5083986;28;20060;-64
2022/06/27 08:41:56;;;;;;;4.18;3.05;;;;;;;;;;5079468;28;20049;-65
2022/06/27 08:44:23;;;;;;;3.75;3.45;;;;;;;;;;5083053;28;20041;-65
2022/06/27 08:46:51;;;;;;;5.85;3.60;;;;;;;;;;5072385;28;20041;-65
2022/06/27 08:49:17;;;;;;;6.47;3.75;;;;;;;;;;5075813;28;20359;-63
2022/06/27 08:51:44;;;;;;;5.32;3.60;;;;;;;;;;5067193;28;20048;-63
2022/06/27 08:54:10;;;;;;;4.50;3.17;;;;;;;;;;5067580;28;20053;-63
2022/06/27 08:56:37;;;;;;;4.30;2.92;;;;;;;;;;5067116;28;20045;-63
2022/06/27 08:59:04;;;;;;;3.78;3.25;;;;;;;;;;5067185;28;20041;-63
2022/06/27 09:01:30;;;;;;;4.35;2.80;;;;;;;;;;5066899;28;20045;-63
2022/06/27 09:03:58;;;;;;;3.63;3.25;;;;;;;;;;5080653;28;20045;-64
2022/06/27 09:06:26;;;;;;;3.45;2.97;;;;;;;;;;5082676;28;20156;-65
2022/06/27 09:09:03;;;;;;;3.88;3.03;;;;;;;;;;5067968;28;20045;-65
2022/06/27 09:11:30;;;;;;;4.88;2.88;;;;;;;;;;5087210;28;20109;-64
2022/06/27 09:13:56;;;;;;;4.18;3.00;;;;;;;;;;5073055;28;20060;-64
2022/06/27 09:16:23;;;;;;;4.15;3.30;;;;;;;;;;5095807;28;20047;-64
2022/06/27 09:18:50;;;;;;;4.60;3.15;;;;;;;;;;5066424;28;20049;-65
2022/06/27 09:21:17;;;;;;;5.70;3.33;;;;;;;;;;5066852;28;20037;-65
2022/06/27 09:23:53;;;;;;;6.55;3.50;;;;;;;;;;5071112;28;20037;-65
2022/06/27 09:26:21;;;;;;;3.85;3.55;;;;;;;;;;5068003;28;20048;-65
2022/06/27 09:28:48;;;;;;;5.60;3.88;;;;;;;;;;5067002;28;20041;-65
2022/06/27 09:31:27;;;;;;;7.30;4.07;;;;;;;;;;5066714;28;20130;-65
2022/06/27 09:34:03;;;;;;;5.93;3.50;;;;;;;;;;5077045;28;20083;-65
2022/06/27 09:36:31;;;;;;;4.25;3.85;;;;;;;;;;5066879;28;20130;-65
2022/06/27 09:38:59;;;;;;;4.38;3.65;;;;;;;;;;5081842;28;20080;-65
2022/06/27 09:41:29;;;;;;;;;;;;;;;;;;5069508;28;20090;-65
2022/06/27 09:43:59;;;;;;;3.88;3.47;;;;;;;;;;5077059;28;19952;-65
2022/06/27 09:46:26;;;;;;;3.28;2.97;;;;;;;;;;5065032;28;20056;-65
2022/06/27 09:48:53;;;;;;;4.07;3.30;;;;;;;;;;5081471;28;20724;-65
2022/06/27 09:51:19;;;;;;;4.35;3.55;;;;;;;;;;5080486;28;20048;-65
2022/06/27 09:53:47;;;;;;;5.65;4.10;;;;;;;;;;5086302;28;20108;-65
2022/06/27 09:56:15;;;;;;;5.13;4.15;;;;;;;;;;5073276;28;20125;-64
2022/06/27 09:58:41;;;;;;;5.80;3.95;;;;;;;;;;5065943;28;20044;-65
2022/06/27 10:01:08;;;;;;;6.57;3.60;;;;;;;;;;5081658;28;20055;-65
2022/06/27 10:03:36;;;;;;;4.35;3.63;;;;;;;;;;5065288;28;20037;-65
2022/06/27 10:06:03;;;;;;;7.90;4.05;;;;;;;;;;5066059;28;20079;-65
2022/06/27 10:08:35;;;;;;;7.95;5.10;;;;;;;;;;5080041;28;20405;-65
2022/06/27 10:11:01;;;;;;;6.68;4.40;;;;;;;;;;5080037;28;20049;-65
2022/06/27 10:13:31;;;;;;;5.68;4.40;;;;;;;;;;5068173;28;20151;-65
2022/06/27 10:16:06;;;;;;;5.60;4.05;;;;;;;;;;5068791;28;20044;-65
2022/06/27 10:18:51;;;;;;;6.55;4.47;;;;;;;;;;5065041;28;20041;-65
2022/06/27 10:21:27;;;;;;;8.80;4.97;;;;;;;;;;5079981;28;20037;-65
2022/06/27 10:24:12;;;;;;;5.03;4.53;;;;;;;;;;5065681;28;20060;-65
2022/06/27 10:26:42;;;;;;;6.30;4.80;;;;;;;;;;5088285;28;20131;-65
2022/06/27 10:29:34;;;;;;;8.82;5.70;;;;;;;;;;5072050;28;20045;-65
2022/06/27 10:32:04;;;;;;;6.47;5.05;;;;;;;;;;5066707;28;20064;-65
2022/06/27 10:34:39;;;;;;;6.07;5.15;;;;;;;;;;5079596;28;20055;-66
2022/06/27 10:37:27;;;;;;;9.65;5.80;;;;;;;;;;5074816;28;20045;-66
2022/06/27 10:39:53;;;;;;;11.68;6.13;;;;;;;;;;5065327;28;20408;-65
2022/06/27 10:42:38;;;;;;;8.77;5.65;;;;;;;;;;5065429;28;20116;-65
2022/06/27 10:45:22;;;;;;;6.35;5.60;;;;;;;;;;5065465;28;20104;-66
2022/06/27 10:47:53;;;;;;;10.02;5.30;;;;;;;;;;5064498;28;20052;-65
2022/06/27 10:50:20;;;;;;;6.55;5.20;;;;;;;;;;5065301;28;20096;-65
2022/06/27 10:52:47;;;;;;;8.70;5.35;;;;;;;;;;5080437;28;20048;-65
2022/06/27 10:55:23;;;;;;;5.97;4.70;;;;;;;;;;5079114;28;20053;-65
2022/06/27 10:57:50;;;;;;;5.68;4.25;;;;;;;;;;5092098;28;20713;-65
2022/06/27 11:00:36;;;;;;;5.67;3.73;;;;;;;;;;5070701;28;20105;-65
2022/06/27 11:03:03;;;;;;;5.63;4.00;;;;;;;;;;5063144;28;20295;-65
2022/06/27 11:05:32;;;;;;;5.13;3.83;;;;;;;;;;5069857;28;20567;-65
2022/06/27 11:07:58;;;;;;;5.35;4.05;;;;;;;;;;5084868;28;20041;-65
2022/06/27 11:10:25;;;;;;;4.22;3.83;;;;;;;;;;5080951;28;20052;-65
2022/06/27 11:12:51;;;;;;;3.70;3.33;;;;;;;;;;5078950;28;20073;-65
2022/06/27 11:15:17;;;;;;;4.38;3.58;;;;;;;;;;5064913;28;20128;-65
2022/06/27 11:17:45;;;;;;;4.55;3.00;;;;;;;;;;5064107;28;20578;-65
2022/06/27 11:20:12;;;;;;;4.65;3.65;;;;;;;;;;5079984;28;20097;-65
2022/06/27 11:22:38;;;;;;;5.50;3.53;;;;;;;;;;5096278;28;20064;-65
2022/06/27 11:25:05;;;;;;;4.43;3.28;;;;;;;;;;5075342;28;20080;-65
2022/06/27 11:27:47;;;;;;;5.28;3.30;;;;;;;;;;5064556;28;20120;-65
2022/06/27 11:33:19;;;;;;;3.63;3.28;;;;;;;;;;5063986;28;20052;-65
2022/06/27 11:35:45;;;;;;;;;;;;;;;;;;5064822;28;20079;-65
2022/06/27 11:38:11;;;;;;;5.15;3.40;;;;;;;;;;5064324;28;19921;-65
2022/06/27 11:40:38;;;;;;;3.70;3.28;;;;;;;;;;5064583;28;20049;-65
2022/06/27 11:43:04;;;;;;;6.75;3.42;;;;;;;;;;5064329;28;20056;-65
2022/06/27 11:45:48;;;;;;;2.90;2.60;;;;;;;;;;5079971;28;20128;-65
2022/06/27 11:48:15;;;;;;;6.60;3.22;;;;;;;;;;5063666;28;20049;-65
2022/06/27 11:50:42;;;;;;;6.55;3.63;;;;;;;;;;5064291;28;20049;-65
2022/06/27 11:53:08;;;;;;;4.00;2.85;;;;;;;;;;5068381;28;20048;-65
2022/06/27 11:55:34;;;;;;;6.18;2.88;;;;;;;;;;5076766;28;20067;-65
2022/06/27 11:58:01;;;;;;;4.75;2.70;;;;;;;;;;5064225;28;20516;-65
2022/06/27 12:00:29;;;;;;;4.47;3.03;;;;;;;;;;5082027;28;20524;-65
2022/06/27 12:02:58;;;;;;;5.45;2.92;;;;;;;;;;5075732;28;20041;-65
2022/06/27 12:05:25;;;;;;;4.10;2.88;;;;;;;;;;5065312;28;20478;-65
2022/06/27 12:07:56;;;;;;;3.60;2.72;;;;;;;;;;5064109;28;20045;-65
2022/06/27 12:10:34;;;;;;;5.03;2.92;;;;;;;;;;5081289;28;20163;-65
2022/06/27 12:13:00;;;;;;;4.63;2.90;;;;;;;;;;5068272;28;20072;-65
2022/06/27 12:15:27;;;;;;;5.82;2.92;;;;;;;;;;5083748;28;20110;-65
2022/06/27 12:17:57;;;;;;;3.63;3.15;;;;;;;;;;5067471;28;20051;-65
2022/06/27 12:20:24;;;;;;;2.97;2.30;;;;;;;;;;5067961;28;20060;-65
2022/06/27 12:22:50;;;;;;;6.25;3.00;;;;;;;;;;5071677;28;20072;-66
2022/06/27 12:25:17;;;;;;;4.00;2.80;;;;;;;;;;5078053;28;20151;-65
2022/06/27 12:27:43;;;;;;;5.97;3.80;;;;;;;;;;5068086;28;20036;-65
2022/06/27 12:30:10;;;;;;;5.07;4.00;;;;;;;;;;5067834;28;20308;-66
2022/06/27 12:32:36;;;;;;;5.00;3.92;;;;;;;;;;5097080;28;20040;-66
2022/06/27 12:35:02;;;;;;;5.60;4.47;;;;;;;;;;5083091;28;20048;-66
2022/06/27 12:37:29;;;;;;;5.57;5.07;;;;;;;;;;5067662;28;20053;-66
2022/06/27 12:39:55;;;;;;;6.07;5.47;;;;;;;;;;5067702;28;20396;-66
2022/06/27 12:42:21;;;;;;;5.20;4.65;;;;;;;;;;5067682;28;20047;-66
2022/06/27 12:44:47;;;;;;;5.78;3.83;;;;;;;;;;5087120;28;20053;-66
2022/06/27 12:47:13;;;;;;;4.97;4.03;;;;;;;;;;5078451;28;20045;-66
2022/06/27 12:49:39;;;;;;;7.55;3.90;;;;;;;;;;5082900;28;20128;-66
2022/06/27 12:52:06;;;;;;;5.97;4.10;;;;;;;;;;5067330;28;20100;-66
2022/06/27 12:54:32;;;;;;;5.70;4.47;;;;;;;;;;5082985;28;20049;-67
2022/06/27 12:56:59;;;;;;;7.45;4.57;;;;;;;;;;5072147;28;20044;-67
2022/06/27 12:59:25;;;;;;;6.78;4.03;;;;;;;;;;5076360;28;20045;-66
2022/06/27 13:01:52;;;;;;;6.60;4.35;;;;;;;;;;5066695;28;20099;-67
2022/06/27 13:04:18;;;;;;;5.43;4.22;;;;;;;;;;5082555;28;20053;-67
2022/06/27 13:06:44;;;;;;;6.22;4.35;;;;;;;;;;5096883;28;20425;-66
2022/06/27 13:09:11;;;;;;;6.75;4.43;;;;;;;;;;5074474;28;20072;-67
2022/06/27 13:11:38;;;;;;;6.28;4.60;;;;;;;;;;5093028;28;20053;-66
2022/06/27 13:14:04;;;;;;;6.22;5.18;;;;;;;;;;5066886;28;20045;-66
2022/06/27 13:16:30;;;;;;;6.68;6.07;;;;;;;;;;5066587;28;20041;-66
2022/06/27 13:18:56;;;;;;;6.32;5.50;;;;;;;;;;5066909;28;20052;-66
2022/06/27 13:21:22;;;;;;;7.72;6.45;;;;;;;;;;5066709;28;20040;-66
2022/06/27 13:23:49;;;;;;;6.90;6.20;;;;;;;;;;5066757;28;20174;-66
2022/06/27 13:26:16;;;;;;;7.93;7.15;;;;;;;;;;5066956;28;20040;-66
2022/06/27 13:28:42;;;;;;;7.77;7.07;;;;;;;;;;5076958;28;20045;-65
2022/06/27 13:31:08;;;;;;;8.02;7.22;;;;;;;;;;5070351;28;20290;-65
2022/06/27 13:33:34;;;;;;;10.55;7.40;;;;;;;;;;5070838;28;20111;-65
2022/06/27 13:36:01;;;;;;;8.35;7.18;;;;;;;;;;5072162;28;20049;-66
2022/06/27 13:38:27;;;;;;;14.55;8.32;;;;;;;;;;5066318;28;20044;-66
2022/06/27 13:40:53;;;;;;;10.32;8.82;;;;;;;;;;5066758;28;20072;-66
2022/06/27 13:43:19;;;;;;;13.80;8.48;;;;;;;;;;5066193;28;20092;-66
2022/06/27 13:45:45;;;;;;;10.23;8.45;;;;;;;;;;5066773;28;20049;-66
2022/06/27 13:48:11;;;;;;;11.70;9.90;;;;;;;;;;5081444;28;20059;-66
2022/06/27 13:50:37;;;;;;;12.27;9.35;;;;;;;;;;5066345;28;20051;-65
2022/06/27 13:53:05;;;;;;;9.38;8.48;;;;;;;;;;5066175;28;20081;-66
2022/06/27 13:55:32;;;;;;;12.20;9.25;;;;;;;;;;5081705;28;20504;-65
2022/06/27 13:57:59;;;;;;;10.95;9.90;;;;;;;;;;5066005;28;20215;-65
2022/06/27 14:00:25;;;;;;;10.73;9.23;;;;;;;;;;5066042;28;20390;-65
2022/06/27 14:02:51;;;;;;;9.82;8.90;;;;;;;;;;5081258;28;20055;-65
2022/06/27 14:05:17;;;;;;;9.93;8.93;;;;;;;;;;5065903;28;20401;-65
2022/06/27 14:07:45;;;;;;;10.77;9.00;;;;;;;;;;5075386;28;20072;-67
2022/06/27 14:10:13;;;;;;;10.98;9.98;;;;;;;;;;5084934;28;20068;-66
2022/06/27 14:12:39;;;;;;;;;;;;;;;;;;5083686;28;20045;-65
2022/06/27 14:15:06;;;;;;;11.88;10.07;;;;;;;;;;5066025;28;19943;-65
2022/06/27 14:17:32;;;;;;;11.00;10.00;;;;;;;;;;5065243;28;20048;-66
2022/06/27 14:19:58;;;;;;;12.73;10.38;;;;;;;;;;5065803;28;20048;-66
2022/06/27 14:22:25;;;;;;;11.10;10.00;;;;;;;;;;5065614;28;20088;-66
2022/06/27 14:24:51;;;;;;;11.23;9.98;;;;;;;;;;5074546;28;20041;-66
2022/06/27 14:27:18;;;;;;;10.88;9.88;;;;;;;;;;5081058;28;20124;-66
2022/06/27 14:29:48;;;;;;;10.05;9.10;;;;;;;;;;5079821;28;20045;-65
2022/06/27 14:32:14;;;;;;;10.10;9.00;;;;;;;;;;5064534;28;20094;-66
2022/06/27 14:34:40;;;;;;;10.13;8.48;;;;;;;;;;5079284;28;20068;-66
2022/06/27 14:37:06;;;;;;;10.32;8.95;;;;;;;;;;5065219;28;20045;-66
2022/06/27 14:39:32;;;;;;;10.77;9.65;;;;;;;;;;5079634;28;20063;-65
2022/06/27 14:41:59;;;;;;;9.35;8.55;;;;;;;;;;5065271;28;20041;-65
2022/06/27 14:44:25;;;;;;;10.43;9.35;;;;;;;;;;5065325;28;20511;-66